createdAt,value
2016-10-16T00:01:21.058Z,83.2
2016-10-16T00:06:21.009Z,83.2
2016-10-16T00:11:20.958Z,83.3
2016-10-16T00:16:20.598Z,83.4
2016-10-16T00:21:20.857Z,83.2
2016-10-16T00:26:20.500Z,83.3
2016-10-16T00:31:20.751Z,83.2
2016-10-16T00:36:20.707Z,83.26
2016-10-16T00:41:20.651Z,83.26
2016-10-16T00:46:20.295Z,82.97
2016-10-16T00:51:20.545Z,83.36
2016-10-16T00:56:20.189Z,83.36
2016-10-16T01:01:20.443Z,83.45
2016-10-16T01:06:20.390Z,83.45
2016-10-16T01:11:20.336Z,83.45
2016-10-16T01:16:20.286Z,83.36
2016-10-16T01:21:20.232Z,83.16
2016-10-16T01:26:20.190Z,83.26
2016-10-16T01:31:20.132Z,83.07
2016-10-16T01:36:20.085Z,83.26
2016-10-16T01:41:20.020Z,82.87
2016-10-16T01:46:19.968Z,83.07
2016-10-16T01:51:19.927Z,83.16
2016-10-16T01:56:19.869Z,82.78
2016-10-16T02:01:19.813Z,82.87
2016-10-16T02:06:19.756Z,82.78
2016-10-16T02:11:19.708Z,82.78
2016-10-16T02:16:19.652Z,82.68
2016-10-16T02:21:19.604Z,82.87
2016-10-16T02:26:19.556Z,82.78
2016-10-16T02:31:19.190Z,82.68
2016-10-16T02:36:19.452Z,82.78
2016-10-16T02:41:19.388Z,82.64
2016-10-16T02:46:19.037Z,82.78
2016-10-16T02:51:18.986Z,82.16
2016-10-16T02:56:19.231Z,82.64
2016-10-16T03:01:18.873Z,82.35
2016-10-16T03:06:19.126Z,83.03
2016-10-16T03:11:19.074Z,82.16
2016-10-16T03:16:19.018Z,82.54
2016-10-16T03:21:18.662Z,83.03
2016-10-16T03:26:18.923Z,82.64
2016-10-16T03:31:18.857Z,82.64
2016-10-16T03:36:18.807Z,82.54
2016-10-16T03:41:18.450Z,82.84
2016-10-16T03:46:18.400Z,82.54
2016-10-16T03:51:18.649Z,82.84
2016-10-16T03:56:18.597Z,82.54
2016-10-16T04:01:18.541Z,82.74
2016-10-16T04:06:18.488Z,83.03
2016-10-16T04:11:18.131Z,82.74
2016-10-16T04:16:18.380Z,82.35
2016-10-16T04:21:18.323Z,82.07
2016-10-16T04:26:18.275Z,82.26
2016-10-16T04:31:17.911Z,82.74
2016-10-16T04:36:18.160Z,82.54
2016-10-16T04:41:17.815Z,82.64
2016-10-16T04:46:18.050Z,82.7
2016-10-16T04:51:17.996Z,82.64
2016-10-16T04:56:17.942Z,82.64
2016-10-16T05:01:17.889Z,82.07
2016-10-16T05:06:17.833Z,82.16
2016-10-16T05:11:17.775Z,82.54
2016-10-16T05:16:17.726Z,81.87
2016-10-16T05:21:17.669Z,82.93
2016-10-16T05:26:17.617Z,82.16
2016-10-16T05:31:17.562Z,82.16
2016-10-16T05:36:17.506Z,82.07
2016-10-16T05:41:17.145Z,82.07
2016-10-16T05:46:17.395Z,81.87
2016-10-16T05:51:17.338Z,82.03
2016-10-16T05:56:17.282Z,82.12
2016-10-16T06:01:16.922Z,82.03
2016-10-16T06:06:17.171Z,81.93
2016-10-16T06:11:17.115Z,82.98
2016-10-16T06:16:17.063Z,81.84
2016-10-16T06:21:17.009Z,81.97
2016-10-16T06:26:16.949Z,82.07
2016-10-16T06:31:16.896Z,81.78
2016-10-16T06:36:16.839Z,81.34
2016-10-16T06:41:16.788Z,80.96
2016-10-16T06:46:16.750Z,80.57
2016-10-16T06:51:16.674Z,80.66
2016-10-16T06:56:16.311Z,80.8
2016-10-16T07:01:16.562Z,80.51
2016-10-16T07:06:16.512Z,81.38
2016-10-16T07:11:16.454Z,80.9
2016-10-16T07:16:16.400Z,80.71
2016-10-16T07:21:16.345Z,80.71
2016-10-16T07:26:15.987Z,80.99
2016-10-16T07:31:16.241Z,81.38
2016-10-16T07:36:16.189Z,81.67
2016-10-16T07:41:16.145Z,82.24
2016-10-16T07:46:16.078Z,82.15
2016-10-16T07:51:16.029Z,82.24
2016-10-16T07:56:15.975Z,81.48
2016-10-16T08:01:15.935Z,81.57
2016-10-16T08:06:15.566Z,81.48
2016-10-16T08:11:15.517Z,81.38
2016-10-16T08:16:15.777Z,81.76
2016-10-16T08:21:15.726Z,81.67
2016-10-16T08:26:15.661Z,81.67
2016-10-16T08:31:15.611Z,81.96
2016-10-16T08:36:15.255Z,82.05
2016-10-16T08:41:15.507Z,81.96
2016-10-16T08:46:15.455Z,82.34
2016-10-16T08:51:15.407Z,82.15
2016-10-16T08:56:15.366Z,82.24
2016-10-16T09:01:15.002Z,81.86
2016-10-16T09:06:14.955Z,81.71
2016-10-16T09:11:15.206Z,82.19
2016-10-16T09:16:15.162Z,82.29
2016-10-16T09:21:15.112Z,81.61
2016-10-16T09:26:15.072Z,81.81
2016-10-16T09:31:15.014Z,81.99
2016-10-16T09:36:14.660Z,81.99
2016-10-16T09:41:14.917Z,81.9
2016-10-16T09:46:14.893Z,81.9
2016-10-16T09:51:14.819Z,81.99
2016-10-16T09:56:14.769Z,81.9
2016-10-16T10:01:14.729Z,81.99
2016-10-16T10:06:14.379Z,81.9
2016-10-16T10:11:14.317Z,81.9
2016-10-16T10:16:14.264Z,81.52
2016-10-16T10:21:14.522Z,81.71
2016-10-16T10:26:14.161Z,81.71
2016-10-16T10:31:14.113Z,81.61
2016-10-16T10:36:14.369Z,81.32
2016-10-16T10:41:14.316Z,81.71
2016-10-16T10:46:14.273Z,81.42
2016-10-16T10:51:14.217Z,82.19
2016-10-16T10:56:14.166Z,82.29
2016-10-16T11:01:13.816Z,81.99
2016-10-16T11:06:14.075Z,82.19
2016-10-16T11:11:14.024Z,82.04
2016-10-16T11:16:13.985Z,82.32
2016-10-16T11:21:13.935Z,82.23
2016-10-16T11:26:13.887Z,82.14
2016-10-16T11:31:13.535Z,82.61
2016-10-16T11:36:13.797Z,81.94
2016-10-16T11:41:13.751Z,82.32
2016-10-16T11:46:13.700Z,82.14
2016-10-16T11:51:13.648Z,82.32
2016-10-16T11:56:13.616Z,82.14
2016-10-16T12:01:13.549Z,82.29
2016-10-16T12:06:13.507Z,81.75
2016-10-16T12:11:13.453Z,81.65
2016-10-16T12:16:13.407Z,81.75
2016-10-16T12:21:13.375Z,82.04
2016-10-16T12:26:13.016Z,82.19
2016-10-16T12:31:12.949Z,82.42
2016-10-16T12:36:12.904Z,82.29
2016-10-16T12:41:13.169Z,81.71
2016-10-16T12:46:12.803Z,81.37
2016-10-16T12:51:13.057Z,80.6
2016-10-16T12:56:13.011Z,80.06
2016-10-16T13:01:12.958Z,79.86
2016-10-16T13:06:12.908Z,79.77
2016-10-16T13:11:12.857Z,79.81
2016-10-16T13:16:12.811Z,79.52
2016-10-16T13:21:12.750Z,79.61
2016-10-16T13:26:12.392Z,79.33
2016-10-16T13:31:12.344Z,79.03
2016-10-16T13:36:12.288Z,79.03
2016-10-16T13:41:12.548Z,78.46
2016-10-16T13:46:12.191Z,78.46
2016-10-16T13:51:12.442Z,79.03
2016-10-16T13:56:12.391Z,79.03
2016-10-16T14:01:12.345Z,79.81
2016-10-16T14:06:11.999Z,79.96
2016-10-16T14:11:11.947Z,80.54
2016-10-16T14:16:12.198Z,81.21
2016-10-16T14:21:12.147Z,80.54
2016-10-16T14:26:12.103Z,81.21
2016-10-16T14:31:12.041Z,81.3
2016-10-16T14:36:11.988Z,81.5
2016-10-16T14:41:11.633Z,81.3
2016-10-16T14:46:11.885Z,81.65
2016-10-16T14:51:11.835Z,81.65
2016-10-16T14:56:11.484Z,81.75
2016-10-16T15:01:11.737Z,81.56
2016-10-16T15:06:11.830Z,81.65
2016-10-16T15:11:11.657Z,81.94
2016-10-16T15:16:11.586Z,82.23
2016-10-16T15:21:11.248Z,82.14
2016-10-16T15:26:11.497Z,82.42
2016-10-16T15:31:11.446Z,82.76
2016-10-16T15:36:11.386Z,82.81
2016-10-16T15:41:11.345Z,83.39
2016-10-16T15:46:11.295Z,83.39
2016-10-16T15:51:11.263Z,83.29
2016-10-16T15:56:11.210Z,85.31
2016-10-16T16:01:11.168Z,85.31
2016-10-16T16:06:11.125Z,85.16
2016-10-16T16:11:11.076Z,86.12
2016-10-16T16:16:11.029Z,86.02
2016-10-16T16:21:10.680Z,85.78
2016-10-16T16:26:10.943Z,85.25
2016-10-16T16:31:10.905Z,85.64
2016-10-16T16:36:10.849Z,85.35
2016-10-16T16:41:10.803Z,85.06
2016-10-16T16:46:10.760Z,84.92
2016-10-16T16:51:10.723Z,85.25
2016-10-16T16:56:10.364Z,86.27
2016-10-16T17:01:10.322Z,86.56
2016-10-16T17:06:10.579Z,86.75
2016-10-16T17:11:10.234Z,87.23
2016-10-16T17:16:10.487Z,87.52
2016-10-16T17:21:10.444Z,87.71
2016-10-16T17:26:10.399Z,87.33
2016-10-16T17:31:10.353Z,86.65
2016-10-16T17:36:10.309Z,87.42
2016-10-16T17:41:09.955Z,87.13
2016-10-16T17:46:10.212Z,86.65
2016-10-16T17:51:10.166Z,87.13
2016-10-16T17:56:10.138Z,87.62
2016-10-16T18:01:10.083Z,87.23
2016-10-16T18:06:10.031Z,86.56
2016-10-16T18:11:09.987Z,86.6
2016-10-16T18:16:09.947Z,86.22
2016-10-16T18:21:09.893Z,86.41
2016-10-16T18:26:09.928Z,85.93
2016-10-16T18:31:09.807Z,86.07
2016-10-16T18:36:09.762Z,85.39
2016-10-16T18:41:09.715Z,85.87
2016-10-16T18:46:09.379Z,85.58
2016-10-16T18:51:09.623Z,85.93
2016-10-16T18:56:09.582Z,85.97
2016-10-16T19:01:09.533Z,86.07
2016-10-16T19:06:09.500Z,86.02
2016-10-16T19:11:09.447Z,85.93
2016-10-16T19:16:09.394Z,85.64
2016-10-16T19:21:09.362Z,85.35
2016-10-16T19:26:09.301Z,86.12
2016-10-16T19:31:08.957Z,85.93
2016-10-16T19:36:09.208Z,85.93
2016-10-16T19:41:09.182Z,85.83
2016-10-16T19:46:09.148Z,86.02
2016-10-16T19:51:08.771Z,85.16
2016-10-16T19:56:09.028Z,86.02
2016-10-16T20:01:08.980Z,85.35
2016-10-16T20:06:08.930Z,85.83
2016-10-16T20:11:08.891Z,84.77
2016-10-16T20:16:08.537Z,85.54
2016-10-16T20:21:08.796Z,85.25
2016-10-16T20:26:08.449Z,84.87
2016-10-16T20:31:08.392Z,84.97
2016-10-16T20:36:08.650Z,84.97
2016-10-16T20:41:08.603Z,84.77
2016-10-16T20:46:08.556Z,84.48
2016-10-16T20:51:08.508Z,84.39
2016-10-16T20:56:08.471Z,84.77
2016-10-16T21:01:08.422Z,84.1
2016-10-16T21:06:08.370Z,84.29
2016-10-16T21:11:08.340Z,84.67
2016-10-16T21:16:08.277Z,83.91
2016-10-16T21:21:07.922Z,83.72
2016-10-16T21:26:07.879Z,84
2016-10-16T21:31:07.829Z,83.52
2016-10-16T21:36:08.088Z,84
2016-10-16T21:41:08.044Z,83.81
2016-10-16T21:46:08.005Z,83.62
2016-10-16T21:51:07.949Z,83.67
2016-10-16T21:56:07.904Z,84.16
2016-10-16T22:01:07.856Z,84.25
2016-10-16T22:06:07.504Z,84.34
2016-10-16T22:11:07.454Z,84.63
2016-10-16T22:16:07.714Z,84.92
2016-10-16T22:21:07.667Z,84.73
2016-10-16T22:26:07.623Z,84.63
2016-10-16T22:31:07.581Z,84.78
2016-10-16T22:36:07.530Z,84.83
2016-10-16T22:41:07.474Z,84.83
2016-10-16T22:46:07.430Z,84.98
2016-10-16T22:51:07.072Z,84.78
2016-10-16T22:56:07.329Z,84.78
2016-10-16T23:01:07.279Z,84.78
2016-10-16T23:06:07.235Z,84.88
2016-10-16T23:11:07.187Z,84.78
2016-10-16T23:16:06.828Z,84.78
2016-10-16T23:21:07.082Z,84.78
2016-10-16T23:26:07.038Z,85.17
2016-10-16T23:31:06.979Z,85.17
2016-10-16T23:36:06.933Z,85.07
2016-10-16T23:41:06.884Z,85.07
2016-10-16T23:46:06.830Z,85.27
2016-10-16T23:51:06.784Z,84.98
2016-10-16T23:56:06.756Z,85.32
